Time;durP1;ratioP1;P1;durP2;ratioP2;P2;SDS_P1;SDS_P2;PMS_P1;PMS_P2;Temp;Humidity;BMP_temperature;BMP_pressure;BME280_temperature;BME280_humidity;BME280_pressure;Samples;Min_cycle;Max_cycle;Signal;HPM_P1;HPM_P2
2023/08/15 00:00:27;;;;;;;7.63;4.68;;;21.60;99.90;;;;;;5023082;28;20085;-60
2023/08/15 00:02:52;;;;;;;6.82;4.40;;;21.60;99.90;;;;;;5021164;28;20504;-59
2023/08/15 00:05:18;;;;;;;7.97;4.60;;;21.60;99.90;;;;;;5028252;28;20571;-60
2023/08/15 00:07:43;;;;;;;6.07;4.43;;;21.60;99.90;;;;;;5023725;28;20468;-60
2023/08/15 00:10:09;;;;;;;8.10;4.40;;;21.50;99.90;;;;;;5026780;28;20028;-60
2023/08/15 00:12:35;;;;;;;9.73;4.85;;;21.50;99.90;;;;;;5021581;28;20362;-61
2023/08/15 00:15:00;;;;;;;11.93;5.00;;;21.40;99.90;;;;;;5019118;28;20382;-60
2023/08/15 00:17:26;;;;;;;5.75;4.57;;;21.40;99.90;;;;;;5024033;28;20030;-60
2023/08/15 00:19:51;;;;;;;8.85;4.32;;;21.30;99.90;;;;;;5023524;28;20044;-60
2023/08/15 00:22:17;;;;;;;8.38;4.40;;;21.30;99.90;;;;;;5024087;28;20045;-60
2023/08/15 00:24:43;;;;;;;9.65;4.45;;;21.40;99.90;;;;;;5023604;28;20037;-60
2023/08/15 00:27:09;;;;;;;7.47;4.53;;;21.30;99.90;;;;;;5024443;28;20143;-60
2023/08/15 00:29:35;;;;;;;8.25;4.63;;;21.20;99.90;;;;;;5025313;28;20112;-60
2023/08/15 00:32:00;;;;;;;7.03;4.57;;;21.10;99.90;;;;;;5024584;28;20031;-61
2023/08/15 00:34:26;;;;;;;6.47;4.80;;;21.10;99.90;;;;;;5024381;28;20507;-60
2023/08/15 00:36:51;;;;;;;9.30;4.55;;;20.90;99.90;;;;;;5028025;28;20040;-59
2023/08/15 00:39:18;;;;;;;9.23;5.50;;;20.90;99.90;;;;;;5022505;28;20029;-59
2023/08/15 00:41:43;;;;;;;6.07;4.50;;;20.90;99.90;;;;;;5024153;28;20036;-60
2023/08/15 00:44:09;;;;;;;7.30;4.68;;;20.90;99.90;;;;;;5021620;28;20060;-60
2023/08/15 00:46:36;;;;;;;7.75;4.68;;;20.90;99.90;;;;;;5026279;28;20025;-60
2023/08/15 00:49:02;;;;;;;5.97;4.40;;;20.90;99.90;;;;;;5025597;28;20041;-60
2023/08/15 00:51:28;;;;;;;9.45;4.88;;;20.90;99.90;;;;;;5025970;28;20026;-60
2023/08/15 00:53:54;;;;;;;7.85;4.85;;;20.90;99.90;;;;;;5018535;28;20030;-60
2023/08/15 00:56:21;;;;;;;8.13;5.00;;;20.90;99.90;;;;;;5026459;28;20148;-60
2023/08/15 00:58:46;;;;;;;6.13;4.72;;;20.90;99.90;;;;;;5027834;28;20543;-60
2023/08/15 01:01:15;;;;;;;9.35;5.32;;;20.90;99.90;;;;;;5020169;28;20037;-60
2023/08/15 01:03:41;;;;;;;10.55;4.38;;;20.90;99.90;;;;;;5025548;28;20032;-61
2023/08/15 01:06:07;;;;;;;9.20;4.72;;;20.80;99.90;;;;;;5025546;28;20037;-60
2023/08/15 01:08:33;;;;;;;10.65;5.47;;;20.80;99.90;;;;;;5021880;28;20018;-60
2023/08/15 01:11:00;;;;;;;13.93;5.63;;;20.80;99.90;;;;;;5021330;28;20050;-59
2023/08/15 01:13:37;;;;;;;7.93;4.53;;;20.70;99.90;;;;;;5019255;28;20079;-61
2023/08/15 01:16:07;;;;;;;10.43;4.45;;;20.70;99.90;;;;;;5025300;28;20028;-62
2023/08/15 01:18:51;;;;;;;6.88;4.80;;;20.70;99.90;;;;;;5024235;28;20029;-60
2023/08/15 01:21:24;;;;;;;10.53;5.47;;;20.70;99.90;;;;;;5024057;28;20029;-59
2023/08/15 01:23:51;;;;;;;10.30;5.30;;;20.60;99.90;;;;;;5025617;28;20033;-60
2023/08/15 01:26:16;;;;;;;8.70;5.18;;;20.60;99.90;;;;;;5026951;28;20099;-60
2023/08/15 01:28:42;;;;;;;12.80;6.28;;;20.50;99.90;;;;;;5026512;28;20476;-60
2023/08/15 01:31:21;;;;;;;11.05;5.80;;;20.50;99.90;;;;;;5023604;28;20497;-60
2023/08/15 01:33:59;;;;;;;8.63;5.43;;;20.40;99.90;;;;;;5028908;28;20388;-60
2023/08/15 01:36:31;;;;;;;10.77;6.28;;;20.40;99.90;;;;;;5029936;28;20424;-60
2023/08/15 01:39:00;;;;;;;10.90;6.28;;;20.40;99.90;;;;;;5032196;28;20025;-59
2023/08/15 01:41:28;;;;;;;10.88;5.90;;;20.30;99.90;;;;;;5024290;28;20065;-60
2023/08/15 01:43:54;;;;;;;10.52;5.80;;;20.30;99.90;;;;;;5029460;28;20035;-60
2023/08/15 01:46:20;;;;;;;9.02;5.80;;;20.30;99.90;;;;;;5025562;28;20026;-61
2023/08/15 01:48:46;;;;;;;11.82;5.35;;;20.30;99.90;;;;;;5030407;28;20105;-61
2023/08/15 01:51:11;;;;;;;8.07;6.35;;;20.30;99.90;;;;;;5025963;28;20030;-60
2023/08/15 01:53:38;;;;;;;10.35;5.55;;;20.30;99.90;;;;;;5029073;28;20075;-60
2023/08/15 01:56:04;;;;;;;11.30;5.93;;;20.30;99.90;;;;;;5027892;28;20030;-60
2023/08/15 01:58:30;;;;;;;10.85;6.05;;;20.40;99.90;;;;;;5032971;28;20570;-60
2023/08/15 02:00:56;;;;;;;10.10;5.80;;;20.40;99.90;;;;;;5030732;28;20029;-59
2023/08/15 02:03:21;;;;;;;14.25;5.57;;;20.40;99.90;;;;;;5026798;28;20065;-60
2023/08/15 02:05:47;;;;;;;11.27;5.63;;;20.40;99.90;;;;;;5028126;28;20022;-61
2023/08/15 02:08:12;;;;;;;9.35;5.45;;;20.50;99.90;;;;;;5030307;28;20029;-61
2023/08/15 02:10:38;;;;;;;7.85;5.93;;;20.60;99.90;;;;;;5029608;28;20503;-59
2023/08/15 02:13:03;;;;;;;10.60;5.60;;;20.50;99.90;;;;;;5029258;28;20056;-61
2023/08/15 02:15:29;;;;;;;9.02;6.30;;;20.60;99.90;;;;;;5022285;28;20065;-60
2023/08/15 02:17:55;;;;;;;11.68;6.03;;;20.60;99.90;;;;;;5026098;28;20602;-60
2023/08/15 02:20:20;;;;;;;7.95;6.15;;;20.60;99.90;;;;;;5027707;28;20045;-60
2023/08/15 02:22:46;;;;;;;9.23;5.65;;;20.60;99.90;;;;;;5029081;28;20032;-60
2023/08/15 02:25:12;;;;;;;13.27;6.43;;;20.70;99.90;;;;;;5025034;28;20730;-59
2023/08/15 02:27:37;;;;;;;17.67;8.25;;;20.70;99.90;;;;;;5026338;28;20568;-60
2023/08/15 02:30:05;;;;;;;20.17;8.73;;;20.80;99.90;;;;;;5027318;28;20025;-60
2023/08/15 02:32:30;;;;;;;16.88;9.35;;;20.70;99.90;;;;;;5027252;28;20033;-58
2023/08/15 02:34:56;;;;;;;28.60;11.63;;;20.70;99.90;;;;;;5027447;28;20025;-60
2023/08/15 02:37:22;;;;;;;24.05;11.65;;;20.60;99.90;;;;;;5025209;28;20037;-61
2023/08/15 02:39:47;;;;;;;22.55;9.98;;;20.60;99.90;;;;;;5024555;28;20516;-60
2023/08/15 02:42:13;;;;;;;19.20;11.18;;;20.70;99.90;;;;;;5029366;28;20494;-61
2023/08/15 02:44:38;;;;;;;19.98;10.55;;;20.60;99.90;;;;;;5024049;28;20123;-60
2023/08/15 02:47:04;;;;;;;23.45;10.98;;;20.60;99.90;;;;;;5026570;28;20026;-61
2023/08/15 02:49:30;;;;;;;18.73;12.30;;;20.70;99.90;;;;;;5026556;28;20032;-61
2023/08/15 02:51:55;;;;;;;20.65;12.18;;;20.70;99.90;;;;;;5045056;28;20017;-61
2023/08/15 02:54:21;;;;;;;22.05;12.05;;;20.70;99.90;;;;;;5026762;28;20029;-60
2023/08/15 02:56:46;;;;;;;27.02;13.80;;;20.70;99.90;;;;;;5024131;28;20091;-61
2023/08/15 02:59:12;;;;;;;25.63;14.50;;;20.70;99.90;;;;;;5024746;28;20029;-60
2023/08/15 03:01:37;;;;;;;33.38;15.82;;;20.70;99.90;;;;;;5025710;28;20034;-62
2023/08/15 03:04:04;;;;;;;29.42;14.52;;;20.70;99.90;;;;;;5030452;28;20572;-61
2023/08/15 03:06:30;;;;;;;19.33;13.27;;;20.70;99.90;;;;;;5026900;28;20369;-60
2023/08/15 03:08:57;;;;;;;21.98;15.25;;;20.70;99.90;;;;;;5029685;28;20032;-61
2023/08/15 03:11:22;;;;;;;24.55;13.35;;;20.70;99.90;;;;;;5025329;28;20026;-61
2023/08/15 03:13:48;;;;;;;24.85;13.00;;;20.70;99.90;;;;;;5029341;28;20024;-62
2023/08/15 03:16:14;;;;;;;22.15;13.48;;;20.70;99.90;;;;;;5028401;28;20105;-61
2023/08/15 03:18:39;;;;;;;25.23;13.77;;;20.70;99.90;;;;;;5028845;28;20037;-61
2023/08/15 03:21:05;;;;;;;30.80;14.80;;;20.70;99.90;;;;;;5029504;28;20037;-61
2023/08/15 03:23:31;;;;;;;25.50;13.07;;;20.70;99.90;;;;;;5025698;28;20037;-61
2023/08/15 03:26:01;;;;;;;17.45;12.70;;;20.70;99.90;;;;;;5029895;28;20035;-62
2023/08/15 03:28:27;;;;;;;30.10;15.40;;;20.70;99.90;;;;;;5027919;28;20022;-61
2023/08/15 03:30:53;;;;;;;23.60;14.43;;;20.70;99.90;;;;;;5026432;28;20029;-62
2023/08/15 03:33:19;;;;;;;21.65;14.13;;;20.70;99.90;;;;;;5029335;28;20029;-62
2023/08/15 03:35:49;;;;;;;24.98;13.40;;;20.70;99.90;;;;;;5026244;28;20157;-61
2023/08/15 03:38:19;;;;;;;22.13;12.32;;;20.70;99.90;;;;;;5024400;28;20029;-61
2023/08/15 03:40:46;;;;;;;24.38;13.75;;;20.70;99.90;;;;;;5023648;28;20048;-62
2023/08/15 03:43:12;;;;;;;24.40;12.80;;;20.70;99.90;;;;;;5024603;28;20055;-61
2023/08/15 03:45:38;;;;;;;22.80;12.40;;;20.70;99.90;;;;;;5025097;28;20025;-62
2023/08/15 03:48:05;;;;;;;19.42;11.98;;;20.70;99.90;;;;;;5028167;28;20053;-62
2023/08/15 03:50:37;;;;;;;31.63;18.98;;;20.60;99.90;;;;;;5023391;28;20036;-61
2023/08/15 03:53:04;;;;;;;29.20;16.33;;;20.60;99.90;;;;;;5027587;28;20496;-62
2023/08/15 03:55:31;;;;;;;17.63;11.52;;;20.70;99.90;;;;;;5024486;28;20029;-62
2023/08/15 03:57:57;;;;;;;24.35;11.95;;;20.60;99.90;;;;;;5021629;28;20029;-62
2023/08/15 04:00:23;;;;;;;18.23;11.75;;;20.60;99.90;;;;;;5024681;28;20040;-62
2023/08/15 04:02:48;;;;;;;18.85;11.75;;;20.60;99.90;;;;;;5028518;28;20029;-62
2023/08/15 04:05:14;;;;;;;27.30;10.88;;;20.60;99.90;;;;;;5024049;28;20026;-62
2023/08/15 04:07:40;;;;;;;19.42;11.65;;;20.60;99.90;;;;;;5021482;28;20457;-60
2023/08/15 04:10:07;;;;;;;22.60;12.48;;;20.60;99.90;;;;;;5026164;28;20034;-61
2023/08/15 04:12:34;;;;;;;21.40;13.02;;;20.60;99.90;;;;;;5023010;28;20026;-61
2023/08/15 04:15:00;;;;;;;20.45;12.48;;;20.60;99.90;;;;;;5020882;28;20268;-60
2023/08/15 04:17:26;;;;;;;19.50;11.80;;;20.60;99.90;;;;;;5028057;28;20035;-61
2023/08/15 04:19:52;;;;;;;22.40;13.63;;;20.60;99.90;;;;;;5027758;28;20037;-61
2023/08/15 04:22:18;;;;;;;18.88;11.82;;;20.60;99.90;;;;;;5022616;28;20032;-60
2023/08/15 04:24:43;;;;;;;19.40;14.02;;;20.60;99.90;;;;;;5024174;28;20104;-60
2023/08/15 04:27:09;;;;;;;25.55;15.90;;;20.60;99.90;;;;;;5024941;28;20365;-61
2023/08/15 04:29:34;;;;;;;21.08;13.75;;;20.60;99.90;;;;;;5024917;28;20025;-61
2023/08/15 04:32:00;;;;;;;21.88;14.65;;;20.60;99.90;;;;;;5024193;28;20021;-61
2023/08/15 04:34:25;;;;;;;27.23;15.77;;;20.60;99.90;;;;;;5026592;28;20034;-61
2023/08/15 04:36:51;;;;;;;25.55;16.02;;;20.60;99.90;;;;;;5025088;28;20037;-61
2023/08/15 04:39:21;;;;;;;24.50;16.30;;;20.60;99.90;;;;;;5026012;28;20033;-60
2023/08/15 04:41:47;;;;;;;21.77;15.18;;;20.60;99.90;;;;;;5022095;28;20500;-60
2023/08/15 04:44:12;;;;;;;27.58;16.20;;;20.60;99.90;;;;;;5023081;28;20051;-60
2023/08/15 04:46:38;;;;;;;35.03;18.35;;;20.60;99.90;;;;;;5024928;28;20033;-61
2023/08/15 04:49:04;;;;;;;28.85;17.85;;;20.60;99.90;;;;;;5022804;28;20397;-57
2023/08/15 04:51:29;;;;;;;25.10;16.08;;;20.60;99.90;;;;;;5023030;28;20378;-57
2023/08/15 04:53:55;;;;;;;29.88;17.63;;;20.60;99.90;;;;;;5026021;28;20047;-56
2023/08/15 04:56:23;;;;;;;29.02;16.48;;;20.60;99.90;;;;;;5026012;28;20034;-57
2023/08/15 04:58:49;;;;;;;20.92;15.48;;;20.60;99.90;;;;;;5022676;28;20039;-57
2023/08/15 05:01:15;;;;;;;25.52;16.65;;;20.60;99.90;;;;;;5021829;28;20608;-56
2023/08/15 05:03:40;;;;;;;24.10;15.45;;;20.60;99.90;;;;;;5024936;28;20180;-57
2023/08/15 05:06:06;;;;;;;25.17;15.02;;;20.50;99.90;;;;;;5024048;28;20026;-57
2023/08/15 05:08:32;;;;;;;30.60;15.30;;;20.50;99.90;;;;;;5026434;28;20116;-53
2023/08/15 05:10:58;;;;;;;27.88;14.32;;;20.50;99.90;;;;;;5024511;28;20041;-57
2023/08/15 05:13:24;;;;;;;20.25;10.73;;;20.40;99.90;;;;;;5022723;28;20037;-54
2023/08/15 05:15:49;;;;;;;13.80;9.20;;;20.30;99.90;;;;;;5019605;28;20080;-57
2023/08/15 05:18:16;;;;;;;20.17;8.60;;;20.30;99.90;;;;;;5027853;28;20109;-55
2023/08/15 05:20:45;;;;;;;21.55;8.35;;;20.20;99.90;;;;;;5024652;28;20060;-57
2023/08/15 05:23:10;;;;;;;14.23;8.35;;;20.20;99.90;;;;;;5019636;28;20033;-57
2023/08/15 05:25:36;;;;;;;12.13;7.68;;;20.20;99.90;;;;;;5022595;28;20040;-55
2023/08/15 05:28:05;;;;;;;10.75;7.03;;;20.20;99.90;;;;;;5020269;28;20033;-56
2023/08/15 05:30:31;;;;;;;10.93;6.68;;;20.20;99.90;;;;;;5020632;28;20440;-55
2023/08/15 05:32:58;;;;;;;12.57;7.72;;;20.10;99.90;;;;;;5026175;28;20104;-54
2023/08/15 05:35:23;;;;;;;8.15;5.15;;;20.20;99.90;;;;;;5022806;28;20032;-58
2023/08/15 05:37:49;;;;;;;10.27;5.35;;;20.20;99.90;;;;;;5028115;28;20025;-59
2023/08/15 05:40:15;;;;;;;6.95;4.78;;;20.20;99.90;;;;;;5026749;28;20021;-54
2023/08/15 05:42:41;;;;;;;8.65;5.55;;;20.20;99.90;;;;;;5022426;28;20116;-57
2023/08/15 05:45:07;;;;;;;14.40;5.60;;;20.20;99.90;;;;;;5024019;28;20457;-56
2023/08/15 05:47:33;;;;;;;12.45;5.82;;;20.20;99.90;;;;;;5022706;28;20029;-54
2023/08/15 05:49:58;;;;;;;9.77;5.40;;;20.20;99.90;;;;;;5024218;28;20081;-57
2023/08/15 05:52:25;;;;;;;9.85;4.53;;;20.20;99.90;;;;;;5025570;28;20029;-53
2023/08/15 05:54:50;;;;;;;9.40;5.18;;;20.20;99.90;;;;;;5027298;28;20401;-56
2023/08/15 05:57:16;;;;;;;6.93;4.40;;;20.20;99.90;;;;;;5022786;28;20026;-56
2023/08/15 05:59:42;;;;;;;8.82;3.97;;;20.20;99.90;;;;;;5025619;28;21454;-57
2023/08/15 06:02:07;;;;;;;10.20;5.93;;;20.30;99.90;;;;;;5028285;28;20029;-56
2023/08/15 06:04:33;;;;;;;7.63;4.88;;;20.30;99.90;;;;;;5028175;28;20519;-56
2023/08/15 06:06:58;;;;;;;10.55;5.25;;;20.30;99.90;;;;;;5027158;28;20040;-54
2023/08/15 06:09:24;;;;;;;7.45;5.15;;;20.30;99.90;;;;;;5030668;28;20030;-57
2023/08/15 06:11:50;;;;;;;9.35;5.75;;;20.40;99.90;;;;;;5031995;28;20033;-55
2023/08/15 06:14:19;;;;;;;7.53;5.13;;;20.40;99.90;;;;;;5032459;28;20108;-56
2023/08/15 06:16:45;;;;;;;10.27;5.68;;;20.50;99.90;;;;;;5028270;28;20409;-53
2023/08/15 06:19:10;;;;;;;9.05;5.50;;;20.60;99.90;;;;;;5030878;28;20033;-55
2023/08/15 06:21:36;;;;;;;10.70;5.00;;;20.70;99.90;;;;;;5032391;28;20515;-55
2023/08/15 06:24:01;;;;;;;6.28;5.22;;;20.70;99.90;;;;;;5025325;28;20040;-57
2023/08/15 06:26:27;;;;;;;8.27;5.15;;;20.80;99.90;;;;;;5032305;28;20038;-54
2023/08/15 06:28:52;;;;;;;10.48;5.15;;;20.80;99.90;;;;;;5031166;28;20441;-56
2023/08/15 06:31:18;;;;;;;9.45;6.10;;;20.80;99.90;;;;;;5031454;28;20412;-52
2023/08/15 06:33:43;;;;;;;12.15;5.57;;;20.80;99.90;;;;;;5029424;28;20374;-53
2023/08/15 06:36:09;;;;;;;13.43;5.85;;;20.80;99.90;;;;;;5029876;28;20021;-54
2023/08/15 06:38:35;;;;;;;6.38;4.28;;;20.80;99.90;;;;;;5026508;28;20029;-57
2023/08/15 06:41:02;;;;;;;7.10;5.22;;;20.80;99.90;;;;;;5031187;28;20049;-55
2023/08/15 06:43:28;;;;;;;8.02;4.70;;;20.80;99.90;;;;;;5027538;28;20116;-55
2023/08/15 06:45:54;;;;;;;11.73;6.03;;;20.80;99.90;;;;;;5026619;28;20133;-54
2023/08/15 06:48:20;;;;;;;11.95;5.70;;;20.90;99.90;;;;;;5026648;28;20072;-56
2023/08/15 06:50:45;;;;;;;9.45;5.45;;;20.90;99.90;;;;;;5028584;28;20045;-55
2023/08/15 06:53:11;;;;;;;10.82;5.30;;;20.90;99.90;;;;;;5032087;28;20526;-53
2023/08/15 06:55:36;;;;;;;11.30;5.65;;;20.90;99.90;;;;;;5031803;28;20040;-53
2023/08/15 06:58:03;;;;;;;13.82;7.15;;;20.80;99.90;;;;;;5030343;28;20033;-54
2023/08/15 07:00:29;;;;;;;16.08;7.90;;;20.90;99.90;;;;;;5027726;28;20501;-54
2023/08/15 07:02:55;;;;;;;15.90;10.60;;;20.90;99.90;;;;;;5030784;28;20076;-56
2023/08/15 07:05:20;;;;;;;15.77;10.73;;;20.90;99.90;;;;;;5030188;28;20508;-55
2023/08/15 07:07:46;;;;;;;18.00;12.68;;;20.90;99.90;;;;;;5028099;28;20022;-54
2023/08/15 07:10:11;;;;;;;21.10;13.13;;;20.90;99.90;;;;;;5028363;28;20040;-55
2023/08/15 07:12:37;;;;;;;17.00;11.93;;;20.90;99.90;;;;;;5030757;28;20045;-55
2023/08/15 07:15:03;;;;;;;18.42;11.48;;;20.90;99.90;;;;;;5030942;28;20108;-54
2023/08/15 07:17:29;;;;;;;24.55;11.68;;;21.00;99.90;;;;;;5030754;28;20531;-56
2023/08/15 07:19:55;;;;;;;22.92;11.40;;;21.10;99.90;;;;;;5026692;28;20049;-55
2023/08/15 07:22:21;;;;;;;20.85;11.25;;;21.10;99.90;;;;;;5028864;28;20033;-56
2023/08/15 07:24:47;;;;;;;21.65;12.82;;;21.10;99.90;;;;;;5029379;28;20048;-55
2023/08/15 07:27:12;;;;;;;21.60;13.00;;;21.00;99.90;;;;;;5031238;28;20509;-55
2023/08/15 07:29:38;;;;;;;24.45;14.02;;;21.00;99.90;;;;;;5031053;28;20045;-55
2023/08/15 07:32:06;;;;;;;18.42;11.75;;;21.00;99.90;;;;;;5030244;28;20029;-54
2023/08/15 07:34:31;;;;;;;17.88;12.30;;;21.10;99.90;;;;;;5028322;28;20084;-56
2023/08/15 07:36:57;;;;;;;19.60;12.50;;;21.10;99.90;;;;;;5029643;28;20488;-55
2023/08/15 07:39:22;;;;;;;14.20;9.23;;;21.20;99.90;;;;;;5029215;28;20033;-54
2023/08/15 07:41:48;;;;;;;21.05;11.93;;;21.20;99.90;;;;;;5031727;28;20071;-55
2023/08/15 07:44:14;;;;;;;21.90;13.40;;;21.20;99.90;;;;;;5026092;28;20110;-53
2023/08/15 07:46:39;;;;;;;18.13;12.20;;;21.20;99.90;;;;;;5029311;28;20284;-54
2023/08/15 07:49:05;;;;;;;22.15;12.18;;;21.20;99.90;;;;;;5030185;28;20018;-55
2023/08/15 07:51:31;;;;;;;15.57;9.73;;;21.20;99.90;;;;;;5030199;28;20025;-54
2023/08/15 07:53:57;;;;;;;12.45;8.13;;;21.30;99.90;;;;;;5030405;28;20083;-55
2023/08/15 07:56:23;;;;;;;9.75;6.85;;;21.40;99.90;;;;;;5030635;28;20033;-52
2023/08/15 07:58:48;;;;;;;16.60;8.02;;;21.30;99.90;;;;;;5030747;28;20036;-56
2023/08/15 08:01:14;;;;;;;12.23;7.43;;;21.40;99.90;;;;;;5025345;28;20032;-52
2023/08/15 08:03:42;;;;;;;14.85;6.85;;;21.40;99.90;;;;;;5029292;28;20034;-55
2023/08/15 08:06:08;;;;;;;11.63;6.30;;;21.40;99.90;;;;;;5025735;28;20030;-56
2023/08/15 08:08:34;;;;;;;9.93;5.78;;;21.30;99.90;;;;;;5028211;28;20104;-56
2023/08/15 08:10:59;;;;;;;11.52;5.70;;;21.40;99.90;;;;;;5028179;28;20108;-56
2023/08/15 08:13:25;;;;;;;19.15;6.63;;;21.40;99.90;;;;;;5027856;28;20025;-56
2023/08/15 08:15:50;;;;;;;14.15;7.25;;;21.40;99.90;;;;;;5029107;28;20025;-55
2023/08/15 08:18:16;;;;;;;12.93;7.43;;;21.50;99.90;;;;;;5029142;28;20041;-56
2023/08/15 08:20:41;;;;;;;27.90;13.95;;;21.40;99.90;;;;;;5020882;28;20489;-56
2023/08/15 08:23:08;;;;;;;17.80;7.75;;;21.60;99.90;;;;;;5028896;28;20099;-53
2023/08/15 08:25:33;;;;;;;23.65;12.88;;;21.70;99.90;;;;;;5027206;28;20030;-53
2023/08/15 08:27:59;;;;;;;13.88;7.70;;;21.70;99.90;;;;;;5024546;28;20028;-55
2023/08/15 08:30:25;;;;;;;11.77;7.35;;;21.70;99.90;;;;;;5026330;28;20377;-53
2023/08/15 08:32:51;;;;;;;11.85;7.20;;;21.80;99.90;;;;;;5028277;28;20026;-54
2023/08/15 08:35:17;;;;;;;10.93;6.63;;;21.80;99.90;;;;;;5029681;28;20084;-55
2023/08/15 08:37:49;;;;;;;10.82;6.55;;;22.00;99.90;;;;;;5028782;28;20087;-54
2023/08/15 08:40:16;;;;;;;9.27;6.65;;;22.00;99.90;;;;;;5029929;28;20028;-55
2023/08/15 08:42:42;;;;;;;13.77;7.43;;;22.00;99.90;;;;;;5029340;28;20104;-54
2023/08/15 08:45:11;;;;;;;13.48;7.00;;;21.90;99.90;;;;;;5029305;28;20143;-56
2023/08/15 08:47:41;;;;;;;15.10;6.85;;;21.90;99.90;;;;;;5028804;28;20030;-53
2023/08/15 08:50:10;;;;;;;12.65;6.88;;;21.90;99.90;;;;;;5030012;28;20025;-54
2023/08/15 08:52:41;;;;;;;14.00;6.85;;;21.90;99.90;;;;;;5027217;28;20025;-54
2023/08/15 08:55:11;;;;;;;11.45;6.90;;;21.90;99.90;;;;;;5026536;28;20022;-54
2023/08/15 08:57:37;;;;;;;15.20;7.97;;;21.70;99.90;;;;;;5030428;28;20029;-55
2023/08/15 09:00:07;;;;;;;19.98;7.78;;;21.70;99.90;;;;;;5028851;28;20056;-55
2023/08/15 09:02:34;;;;;;;11.80;7.72;;;21.70;99.90;;;;;;5023892;28;20061;-56
2023/08/15 09:05:01;;;;;;;12.15;7.22;;;21.70;99.90;;;;;;5025049;28;21364;-55
2023/08/15 09:07:26;;;;;;;18.35;7.72;;;21.70;99.90;;;;;;5028700;28;20030;-53
2023/08/15 09:09:52;;;;;;;9.52;6.43;;;21.80;99.90;;;;;;5018218;28;20025;-53
2023/08/15 09:12:34;;;;;;;11.02;7.07;;;21.70;99.90;;;;;;5030403;28;20514;-54
2023/08/15 09:14:59;;;;;;;11.32;6.60;;;21.70;99.90;;;;;;5026329;28;20405;-53
2023/08/15 09:17:25;;;;;;;15.13;6.50;;;21.70;99.90;;;;;;5029990;28;20040;-53
2023/08/15 09:19:51;;;;;;;12.80;6.22;;;21.90;99.90;;;;;;5026830;28;20036;-53
2023/08/15 09:22:24;;;;;;;8.60;6.13;;;22.00;99.90;;;;;;5029045;28;20033;-54
2023/08/15 09:24:50;;;;;;;14.95;6.60;;;22.10;99.90;;;;;;5029952;28;20052;-58
2023/08/15 09:27:17;;;;;;;16.02;7.30;;;22.00;99.90;;;;;;5029811;28;20028;-55
2023/08/15 09:29:43;;;;;;;13.45;6.68;;;22.00;99.90;;;;;;5027989;28;20037;-56
2023/08/15 09:32:09;;;;;;;13.88;7.10;;;22.10;99.90;;;;;;5024846;28;20056;-53
2023/08/15 09:34:35;;;;;;;20.20;11.85;;;21.90;99.90;;;;;;5028468;28;20029;-53
2023/08/15 09:37:01;;;;;;;11.98;7.28;;;21.90;99.90;;;;;;5025874;28;20467;-53
2023/08/15 09:39:28;;;;;;;14.18;6.63;;;21.90;99.90;;;;;;5028405;28;20378;-55
2023/08/15 09:41:53;;;;;;;13.93;7.20;;;21.90;99.90;;;;;;5022878;28;20037;-53
2023/08/15 09:44:34;;;;;;;17.92;6.25;;;21.90;99.90;;;;;;5024918;28;20041;-56
2023/08/15 09:47:01;;;;;;;16.88;6.55;;;21.90;99.90;;;;;;5031118;28;20095;-55
2023/08/15 09:49:28;;;;;;;13.02;6.13;;;21.80;99.90;;;;;;5033649;28;20052;-55
2023/08/15 09:51:54;;;;;;;12.77;6.35;;;21.80;99.90;;;;;;5027779;28;20053;-56
2023/08/15 09:54:21;;;;;;;16.00;5.32;;;21.80;99.90;;;;;;5032538;28;20026;-55
2023/08/15 09:56:47;;;;;;;11.52;5.68;;;21.80;99.90;;;;;;5031119;28;20369;-52
2023/08/15 09:59:12;;;;;;;13.85;5.50;;;21.80;99.90;;;;;;5033476;28;20091;-57
2023/08/15 10:01:41;;;;;;;10.35;5.35;;;21.80;99.90;;;;;;5034084;28;20052;-56
2023/08/15 10:04:11;;;;;;;10.35;5.15;;;21.80;99.90;;;;;;5029218;28;20021;-57
2023/08/15 10:06:38;;;;;;;12.70;6.07;;;21.90;99.90;;;;;;5028407;28;20400;-56
2023/08/15 10:09:05;;;;;;;19.63;6.28;;;21.90;99.90;;;;;;5032259;28;20075;-56
2023/08/15 10:11:35;;;;;;;9.27;4.90;;;21.90;99.90;;;;;;5032292;28;20033;-56
2023/08/15 10:14:02;;;;;;;14.88;6.03;;;22.00;99.90;;;;;;5033055;28;20014;-55
2023/08/15 10:16:28;;;;;;;12.15;5.65;;;22.10;99.90;;;;;;5030321;28;20025;-53
2023/08/15 10:18:56;;;;;;;13.38;5.57;;;22.20;99.90;;;;;;5029185;28;20043;-56
2023/08/15 10:21:23;;;;;;;12.98;6.05;;;22.30;99.90;;;;;;5032024;28;20032;-54
2023/08/15 10:23:51;;;;;;;15.38;6.78;;;22.30;99.90;;;;;;5025923;28;20017;-57
2023/08/15 10:26:17;;;;;;;14.00;5.45;;;22.40;99.90;;;;;;5029929;28;20436;-56
2023/08/15 10:28:45;;;;;;;9.40;5.07;;;22.50;99.90;;;;;;5029097;28;20029;-53
2023/08/15 10:31:11;;;;;;;13.52;6.75;;;22.70;99.90;;;;;;5031416;28;20053;-54
2023/08/15 10:33:37;;;;;;;14.38;6.03;;;22.80;99.90;;;;;;5030779;28;20060;-53
2023/08/15 10:36:02;;;;;;;11.18;6.05;;;22.90;99.90;;;;;;5028953;28;20048;-53
2023/08/15 10:38:40;;;;;;;19.60;6.68;;;22.90;99.90;;;;;;5030343;28;20033;-57
2023/08/15 10:41:13;;;;;;;15.63;6.43;;;22.70;99.90;;;;;;5030874;28;20038;-55
2023/08/15 10:43:44;;;;;;;19.25;6.95;;;22.90;99.90;;;;;;5028327;28;20080;-57
2023/08/15 10:46:09;;;;;;;13.48;5.80;;;22.90;99.90;;;;;;5031444;28;20093;-56
2023/08/15 10:48:44;;;;;;;10.82;6.05;;;22.90;99.90;;;;;;5028866;28;20109;-54
2023/08/15 10:51:34;;;;;;;15.98;6.45;;;23.00;99.90;;;;;;5032786;28;20026;-55
2023/08/15 10:54:05;;;;;;;11.90;6.63;;;23.10;99.90;;;;;;5028582;28;20025;-54
2023/08/15 10:56:32;;;;;;;11.95;6.22;;;23.20;99.90;;;;;;5028322;28;20037;-56
2023/08/15 10:58:59;;;;;;;15.05;5.97;;;23.20;99.90;;;;;;5030895;28;20037;-56
2023/08/15 11:01:27;;;;;;;11.80;4.85;;;23.20;99.90;;;;;;5032568;28;20045;-55
2023/08/15 11:03:54;;;;;;;10.20;5.22;;;23.20;99.90;;;;;;5027590;28;20030;-53
2023/08/15 11:06:21;;;;;;;13.45;5.47;;;23.20;99.90;;;;;;5031250;28;20030;-54
2023/08/15 11:08:51;;;;;;;9.57;5.15;;;23.30;99.90;;;;;;5029278;28;20029;-54
2023/08/15 11:11:17;;;;;;;11.32;4.70;;;23.30;99.90;;;;;;5026256;28;20455;-57
2023/08/15 11:13:48;;;;;;;8.70;4.65;;;23.40;99.90;;;;;;5029581;28;20136;-54
2023/08/15 11:16:17;;;;;;;11.23;6.10;;;23.50;99.90;;;;;;5031064;28;20021;-56
2023/08/15 11:18:44;;;;;;;9.25;4.53;;;23.60;99.90;;;;;;5031237;28;20022;-56
2023/08/15 11:21:11;;;;;;;11.65;5.07;;;23.60;99.90;;;;;;5047656;28;20026;-54
2023/08/15 11:23:38;;;;;;;9.57;4.50;;;23.60;99.90;;;;;;5028484;28;20025;-53
2023/08/15 11:26:04;;;;;;;11.20;5.68;;;23.70;99.90;;;;;;5031274;28;20535;-53
2023/08/15 11:28:30;;;;;;;10.48;5.03;;;23.70;99.90;;;;;;5032052;28;20439;-56
2023/08/15 11:30:57;;;;;;;12.05;4.53;;;23.80;99.90;;;;;;5026670;28;20454;-56
2023/08/15 11:33:24;;;;;;;13.85;4.95;;;23.80;99.90;;;;;;5031161;28;20032;-54
2023/08/15 11:35:50;;;;;;;8.25;4.63;;;24.00;99.90;;;;;;5028542;28;20022;-53
2023/08/15 11:38:20;;;;;;;11.63;5.28;;;24.20;99.90;;;;;;5024701;28;20098;-53
2023/08/15 11:40:46;;;;;;;13.13;4.88;;;24.10;99.90;;;;;;5028491;28;20481;-53
2023/08/15 11:43:12;;;;;;;9.68;5.03;;;24.40;99.90;;;;;;5031153;28;20049;-55
2023/08/15 11:45:41;;;;;;;10.23;5.60;;;24.50;99.90;;;;;;5028054;28;20034;-56
2023/08/15 11:48:08;;;;;;;7.60;4.45;;;24.60;99.90;;;;;;5030161;28;20038;-54
2023/08/15 11:50:35;;;;;;;10.65;5.28;;;24.70;99.90;;;;;;5022747;28;20026;-54
2023/08/15 11:53:08;;;;;;;15.95;5.40;;;25.00;99.90;;;;;;5029858;28;20088;-53
2023/08/15 11:55:35;;;;;;;11.55;6.10;;;24.80;99.90;;;;;;5026258;28;20017;-57
2023/08/15 11:58:01;;;;;;;9.82;6.25;;;24.70;99.90;;;;;;5026135;28;20253;-57
2023/08/15 12:00:27;;;;;;;12.27;6.22;;;24.60;99.90;;;;;;5024252;28;20025;-56
2023/08/15 12:02:54;;;;;;;11.27;6.22;;;24.80;99.90;;;;;;5022189;28;20045;-57
2023/08/15 12:05:21;;;;;;;12.18;6.80;;;24.80;99.90;;;;;;5027161;28;20052;-56
2023/08/15 12:07:47;;;;;;;12.65;6.05;;;24.70;99.90;;;;;;5024623;28;20393;-55
2023/08/15 12:10:15;;;;;;;10.27;5.85;;;24.90;99.90;;;;;;5023822;28;20022;-52
2023/08/15 12:12:42;;;;;;;11.23;5.30;;;25.00;99.90;;;;;;5024478;28;20029;-57
2023/08/15 12:15:10;;;;;;;13.32;5.97;;;25.10;99.90;;;;;;5025394;28;20022;-53
2023/08/15 12:17:37;;;;;;;7.80;5.25;;;25.20;99.90;;;;;;5026541;28;20028;-53
2023/08/15 12:20:09;;;;;;;11.90;4.75;;;25.30;99.90;;;;;;5025823;28;20567;-55
2023/08/15 12:22:35;;;;;;;10.27;5.25;;;25.40;99.90;;;;;;5022608;28;20120;-56
2023/08/15 12:25:01;;;;;;;11.50;5.40;;;25.40;99.90;;;;;;5024036;28;20598;-55
2023/08/15 12:27:27;;;;;;;15.27;5.70;;;25.40;99.90;;;;;;5024359;28;20763;-52
2023/08/15 12:29:52;;;;;;;9.65;4.30;;;25.20;99.90;;;;;;5028715;28;20103;-56
2023/08/15 12:32:18;;;;;;;8.43;5.20;;;25.30;99.90;;;;;;5027337;28;20033;-54